Satellite Actuals Today Synoptics Week ahead

Weather information and forecast links for Shobdon, the Midlands, Western England and Wales

Today:

BBC Leominster local forecast and regional video.

Met Office general forecast

Met Office F214 and F215 charts (as displayed in the Aero Club each day) You have to register to use this site, but it is free.

Links to pretty much everything you need Rackham's home.

Satellite Met Office or Sat24 - visual for lower cloud, infrared for upper cloud.

XCWeather Wind map and local forecast

Will it Rain Today?

TAFs and METARs EGBB:Birmingham EGFF:Cardiff EGVN:Brize Norton

Local forecasts Met Office  MetCheck  Weatherweb

RASP Ridge wind forecast

Dewpoint+Temperature tephigram UK Soundings or Weather online


Other Club sites:Dunstable  Lasham  Nympsfield Long Mynd

Shobdon Hangar web-cam facing Southwest

Latest TAFs

Birmingham

2019/11/19 18:09
TAF EGBB 191703Z 1918/2018 14008KT 9999 SCT040 
      TEMPO 1918/2006 8000 PROB40 
      TEMPO 2009/2012 14015G25KT

Brize Norton

2019/11/20 03:57
TAF EGVN 200150Z 2003/2103 13007KT 9999 BKN045 
      BECMG 2019/2022 BKN020 
      TEMPO 2022/2103 BKN010

Cardiff

2019/11/19 18:09
TAF EGFF 191659Z 1918/2018 12010KT 9999 SCT025 PROB30 1918/1921 8000 PROB30 
      TEMPO 1921/2006 13015G25KT PROB30 
      TEMPO 2000/2010 BKN010 PROB30 
      TEMPO 2003/2007 9000 -RA 
      TEMPO 2006/2012 13018G28KT

Select station

2019/11/19 18:09
TAF EGCC 191703Z 1918/2024 13005KT 9999 FEW035 PROB40 1918/2011 8000 
      TEMPO 2000/2015 14015G25KT

Decode?  - Copy the TAF (from the station code) and paste it into the METARs/TAFs box here.

Soaring data for today

Data provided by RASP

Today's Forecast for Shobdon (52.24207,-2.87443)
Stars rating
Wind direction
Wind speed
Cumrasp-uk.ukulus potential
Surface Sunshine
Surface Temperature
MSL Pressuree
Rainfall